createdAt,value
2019-01-04T00:00:10.638Z,0.78
2019-01-04T00:02:39.303Z,0.81
2019-01-04T00:05:09.740Z,0.69
2019-01-04T00:07:38.357Z,0.38
2019-01-04T00:10:07.439Z,0.46
2019-01-04T00:12:36.123Z,0.62
2019-01-04T00:15:05.729Z,0.63
2019-01-04T00:17:34.808Z,0.73
2019-01-04T00:20:03.953Z,0.55
2019-01-04T00:22:32.945Z,0.55
2019-01-04T00:25:01.532Z,0.65
2019-01-04T00:27:30.133Z,0.54
2019-01-04T00:29:59.853Z,0.60
2019-01-04T00:32:28.719Z,0.54
2019-01-04T00:34:57.319Z,0.70
2019-01-04T00:37:25.936Z,0.62
2019-01-04T00:39:54.479Z,0.82
2019-01-04T00:42:23.453Z,0.78
2019-01-04T00:44:52.016Z,0.73
2019-01-04T00:47:20.635Z,0.88
2019-01-04T00:49:49.165Z,0.82
2019-01-04T00:52:17.790Z,0.85
2019-01-04T00:54:46.465Z,0.63
2019-01-04T00:57:36.342Z,0.66
2019-01-04T01:00:38.513Z,0.55
2019-01-04T01:03:39.008Z,0.49
2019-01-04T01:06:28.560Z,0.44
2019-01-04T01:09:22.996Z,0.56
2019-01-04T01:12:09.680Z,0.56
2019-01-04T01:14:53.423Z,0.52
2019-01-04T01:17:58.533Z,0.55
2019-01-04T01:20:45.396Z,0.59
2019-01-04T01:23:29.103Z,0.48
2019-01-04T01:26:17.233Z,0.49
2019-01-04T01:29:05.408Z,0.45
2019-01-04T01:31:58.593Z,0.64
2019-01-04T01:34:41.786Z,0.59
2019-01-04T01:37:16.536Z,0.54
2019-01-04T01:40:04.658Z,0.73
2019-01-04T01:42:36.740Z,0.67
2019-01-04T01:45:34.216Z,0.56
2019-01-04T01:48:03.831Z,0.69
2019-01-04T01:50:46.513Z,0.77
2019-01-04T01:53:16.378Z,0.62
2019-01-04T01:55:44.963Z,1.06
2019-01-04T01:58:13.494Z,0.89
2019-01-04T02:00:42.389Z,0.73
2019-01-04T02:03:11.297Z,0.64
2019-01-04T02:05:40.912Z,0.68
2019-01-04T02:08:09.456Z,0.66
2019-01-04T02:10:38.252Z,0.77
2019-01-04T02:13:06.805Z,0.61
2019-01-04T02:15:35.438Z,0.66
2019-01-04T02:18:03.961Z,0.90
2019-01-04T02:20:32.516Z,1.02
2019-01-04T02:23:01.061Z,0.87
2019-01-04T02:25:29.950Z,1.02
2019-01-04T02:27:58.609Z,1.05
2019-01-04T02:30:27.497Z,1.10
2019-01-04T02:32:56.339Z,0.97
2019-01-04T02:35:24.993Z,0.89
2019-01-04T02:37:53.553Z,0.85
2019-01-04T02:40:22.180Z,0.81
2019-01-04T02:42:50.714Z,0.71
2019-01-04T02:45:19.252Z,0.96
2019-01-04T02:47:47.823Z,0.83
2019-01-04T02:50:16.358Z,0.79
2019-01-04T02:52:44.921Z,0.80
2019-01-04T02:55:13.908Z,0.90
2019-01-04T02:57:42.436Z,0.96
2019-01-04T03:00:11.004Z,0.73
2019-01-04T03:02:39.521Z,0.74
2019-01-04T03:05:08.130Z,0.90
2019-01-04T03:07:36.655Z,0.88
2019-01-04T03:10:06.129Z,0.53
2019-01-04T03:12:34.979Z,0.73
2019-01-04T03:15:03.563Z,0.53
2019-01-04T03:17:32.089Z,0.64
2019-01-04T03:20:00.845Z,0.55
2019-01-04T03:22:29.367Z,0.56
2019-01-04T03:24:57.949Z,0.79
2019-01-04T03:27:26.477Z,0.62
2019-01-04T03:29:55.045Z,0.77
2019-01-04T03:32:23.630Z,0.89
2019-01-04T03:34:52.184Z,0.92
2019-01-04T03:37:20.731Z,0.68
2019-01-04T03:39:49.304Z,0.60
2019-01-04T03:42:18.218Z,0.74
2019-01-04T03:44:47.106Z,0.93
2019-01-04T03:47:15.733Z,0.77
2019-01-04T03:49:44.678Z,0.70
2019-01-04T03:52:13.535Z,0.80
2019-01-04T03:54:42.171Z,0.55
2019-01-04T03:57:11.043Z,0.70
2019-01-04T03:59:39.650Z,0.78
2019-01-04T04:02:08.187Z,0.71
2019-01-04T04:04:36.780Z,0.75
2019-01-04T04:07:05.309Z,0.73
2019-01-04T04:09:33.868Z,0.79
2019-01-04T04:12:02.401Z,0.70
2019-01-04T04:14:30.947Z,0.75
2019-01-04T04:16:59.473Z,0.68
2019-01-04T04:19:28.063Z,0.72
2019-01-04T04:21:56.646Z,0.73
2019-01-04T04:24:25.247Z,0.72
2019-01-04T04:26:53.800Z,0.61
2019-01-04T04:29:22.321Z,0.72
2019-01-04T04:31:50.847Z,0.67
2019-01-04T04:34:19.421Z,0.68
2019-01-04T04:36:48.271Z,0.70
2019-01-04T04:39:17.162Z,0.75
2019-01-04T04:41:45.693Z,0.81
2019-01-04T04:44:14.253Z,0.91
2019-01-04T04:46:42.765Z,0.92
2019-01-04T04:49:11.418Z,0.80
2019-01-04T04:51:39.934Z,0.90
2019-01-04T04:54:08.486Z,0.89
2019-01-04T04:56:37.011Z,0.77
2019-01-04T04:59:05.582Z,0.91
2019-01-04T05:01:34.115Z,1.01
2019-01-04T05:04:02.715Z,0.85
2019-01-04T05:06:31.242Z,0.85
2019-01-04T05:08:59.837Z,0.85
2019-01-04T05:11:28.749Z,0.84
2019-01-04T05:13:57.355Z,0.83
2019-01-04T05:16:26.238Z,0.93
2019-01-04T05:18:54.785Z,0.84
2019-01-04T05:21:23.308Z,0.94
2019-01-04T05:23:51.900Z,0.90
2019-01-04T05:26:20.415Z,0.92
2019-01-04T05:28:48.970Z,0.91
2019-01-04T05:31:17.820Z,0.91
2019-01-04T05:33:46.713Z,0.91
2019-01-04T05:36:15.234Z,0.95
2019-01-04T05:38:44.153Z,0.97
2019-01-04T05:41:12.982Z,0.88
2019-01-04T05:43:41.610Z,0.73
2019-01-04T05:46:10.551Z,0.79
2019-01-04T05:48:39.124Z,0.89
2019-01-04T05:51:07.662Z,0.88
2019-01-04T05:53:36.255Z,0.99
2019-01-04T05:56:04.804Z,0.95
2019-01-04T05:58:33.392Z,0.87
2019-01-04T06:01:01.972Z,0.97
2019-01-04T06:03:30.571Z,0.99
2019-01-04T06:05:59.098Z,0.87
2019-01-04T06:08:28.000Z,0.98
2019-01-04T06:10:56.997Z,1.04
2019-01-04T06:13:25.598Z,0.83
2019-01-04T06:15:54.131Z,0.74
2019-01-04T06:18:22.662Z,1.05
2019-01-04T06:20:51.187Z,1.08
2019-01-04T06:23:19.739Z,1.06
2019-01-04T06:25:48.316Z,1.16
2019-01-04T06:28:16.940Z,1.10
2019-01-04T06:30:45.517Z,1.10
2019-01-04T06:33:14.449Z,1.24
2019-01-04T06:35:43.018Z,1.26
2019-01-04T06:38:11.551Z,1.28
2019-01-04T06:40:40.196Z,1.26
2019-01-04T06:43:08.740Z,1.26
2019-01-04T06:45:37.343Z,1.24
2019-01-04T06:48:05.991Z,1.12
2019-01-04T06:50:34.541Z,1.32
2019-01-04T06:53:03.164Z,1.32
2019-01-04T06:55:46.755Z,1.12
2019-01-04T06:58:16.146Z,1.17
2019-01-04T07:00:44.684Z,1.15
2019-01-04T07:03:13.264Z,1.10
2019-01-04T07:05:42.224Z,1.04
2019-01-04T07:08:10.790Z,0.91
2019-01-04T07:10:39.452Z,1.08
2019-01-04T07:13:08.082Z,1.29
2019-01-04T07:15:39.998Z,1.22
2019-01-04T07:18:09.096Z,1.05
2019-01-04T07:20:37.690Z,1.12
2019-01-04T07:23:06.404Z,1.13
2019-01-04T07:25:35.099Z,1.05
2019-01-04T07:28:04.111Z,1.24
2019-01-04T07:30:32.758Z,1.19
2019-01-04T07:33:01.876Z,1.18
2019-01-04T07:35:30.435Z,1.23
2019-01-04T07:37:59.002Z,1.21
2019-01-04T07:40:27.703Z,1.21
2019-01-04T07:42:56.264Z,1.29
2019-01-04T07:45:25.201Z,1.24
2019-01-04T07:47:53.848Z,1.37
2019-01-04T07:50:23.903Z,1.60
2019-01-04T07:52:52.493Z,1.54
2019-01-04T07:55:21.451Z,1.64
2019-01-04T07:57:50.110Z,1.56
2019-01-04T08:00:18.833Z,1.56
2019-01-04T08:02:47.740Z,1.62
2019-01-04T08:05:25.145Z,1.66
2019-01-04T08:08:00.424Z,1.60
2019-01-04T08:10:30.306Z,1.65
2019-01-04T08:12:58.869Z,1.53
2019-01-04T08:15:27.541Z,1.63
2019-01-04T08:17:56.445Z,1.61
2019-01-04T08:20:25.282Z,1.65
2019-01-04T08:22:53.982Z,1.79
2019-01-04T08:25:22.711Z,1.67
2019-01-04T08:27:51.556Z,1.92
2019-01-04T08:30:21.142Z,1.64
2019-01-04T08:32:50.289Z,1.88
2019-01-04T08:35:18.841Z,1.76
2019-01-04T08:37:47.480Z,1.89
2019-01-04T08:40:16.106Z,1.84
2019-01-04T08:42:45.068Z,1.93
2019-01-04T08:45:13.690Z,1.84
2019-01-04T08:47:42.329Z,1.72
2019-01-04T08:50:11.355Z,1.89
2019-01-04T08:52:39.992Z,1.88
2019-01-04T08:55:09.852Z,1.77
2019-01-04T08:57:38.828Z,1.81
2019-01-04T09:00:12.500Z,1.82
2019-01-04T09:02:41.167Z,1.84
2019-01-04T09:05:09.772Z,1.92
2019-01-04T09:07:38.340Z,2.10
2019-01-04T09:10:07.868Z,2.21
2019-01-04T09:12:37.129Z,1.94
2019-01-04T09:15:07.722Z,1.94
2019-01-04T09:17:36.412Z,2.10
2019-01-04T09:20:07.897Z,2.04
2019-01-04T09:22:56.515Z,2.09
2019-01-04T09:25:25.450Z,2.10
2019-01-04T09:27:54.053Z,2.22
2019-01-04T09:30:22.744Z,2.20
2019-01-04T09:32:51.310Z,2.24
2019-01-04T09:35:19.930Z,2.25
2019-01-04T09:37:48.573Z,2.21
2019-01-04T09:40:17.577Z,2.37
2019-01-04T09:42:46.271Z,2.41
2019-01-04T09:45:14.927Z,2.17
2019-01-04T09:47:43.505Z,2.27
2019-01-04T09:50:12.240Z,2.15
2019-01-04T09:52:42.433Z,2.26
2019-01-04T09:55:11.094Z,2.32
2019-01-04T09:57:40.733Z,2.35
2019-01-04T10:00:10.367Z,2.33
2019-01-04T10:02:38.925Z,2.39
2019-01-04T10:05:08.933Z,2.28
2019-01-04T10:07:37.495Z,2.35
2019-01-04T10:10:08.862Z,2.40
2019-01-04T10:12:38.598Z,2.44
2019-01-04T10:15:11.996Z,2.51
2019-01-04T10:17:40.674Z,2.55
2019-01-04T10:20:11.102Z,2.62
2019-01-04T10:22:41.302Z,2.73
2019-01-04T10:25:10.132Z,2.58
2019-01-04T10:27:39.114Z,2.59
2019-01-04T10:30:08.049Z,2.59
2019-01-04T10:32:37.325Z,2.54
2019-01-04T10:35:10.468Z,2.79
2019-01-04T10:37:36.701Z,2.55
2019-01-04T10:40:11.041Z,2.54
2019-01-04T10:42:37.448Z,2.73
2019-01-04T10:45:07.461Z,2.65
2019-01-04T10:47:36.157Z,2.77
2019-01-04T10:50:06.483Z,2.74
2019-01-04T10:52:35.177Z,2.77
2019-01-04T10:55:03.809Z,2.70
2019-01-04T10:57:32.806Z,2.68
2019-01-04T11:00:01.592Z,2.67
2019-01-04T11:02:30.719Z,2.71
2019-01-04T11:04:59.316Z,2.89
2019-01-04T11:07:28.693Z,2.88
2019-01-04T11:09:57.272Z,2.91
2019-01-04T11:12:28.028Z,2.79
2019-01-04T11:14:56.653Z,2.68
2019-01-04T11:17:27.754Z,2.82
2019-01-04T11:19:57.461Z,2.79
2019-01-04T11:22:48.749Z,2.94
2019-01-04T11:25:53.472Z,3.07
2019-01-04T11:28:31.275Z,2.88
2019-01-04T11:31:22.957Z,2.91
2019-01-04T11:34:06.466Z,2.98
2019-01-04T11:36:56.220Z,3.08
2019-01-04T11:39:42.771Z,2.98
2019-01-04T11:42:29.263Z,2.97
2019-01-04T11:45:16.162Z,2.91
2019-01-04T11:47:51.782Z,2.99
2019-01-04T11:50:56.656Z,3.12
2019-01-04T11:53:25.412Z,3.08
2019-01-04T11:55:53.947Z,3.14
2019-01-04T11:58:22.673Z,3.05
2019-01-04T12:00:51.325Z,3.05
2019-01-04T12:03:20.034Z,3.10
2019-01-04T12:05:48.989Z,3.16
2019-01-04T12:08:17.607Z,2.98
2019-01-04T12:10:46.200Z,3.05
2019-01-04T12:13:14.905Z,3.09
2019-01-04T12:15:43.498Z,3.04
2019-01-04T12:18:12.301Z,3.16
2019-01-04T12:20:45.354Z,3.12
2019-01-04T12:23:11.440Z,3.04
2019-01-04T12:25:40.380Z,3.11
2019-01-04T12:28:08.960Z,3.12
2019-01-04T12:30:37.982Z,3.26
2019-01-04T12:33:06.796Z,3.22
2019-01-04T12:35:36.505Z,3.27
2019-01-04T12:38:05.205Z,3.29
2019-01-04T12:40:33.855Z,3.36
2019-01-04T12:43:02.709Z,3.26
2019-01-04T12:45:31.702Z,3.35
2019-01-04T12:48:00.379Z,3.26
2019-01-04T12:50:28.926Z,3.27
2019-01-04T12:52:57.524Z,3.34
2019-01-04T12:55:26.119Z,3.43
2019-01-04T12:57:56.735Z,3.43
2019-01-04T13:00:25.430Z,3.40
2019-01-04T13:02:54.074Z,3.45
2019-01-04T13:05:22.848Z,3.43
2019-01-04T13:07:53.839Z,3.50
2019-01-04T13:10:22.456Z,3.39
2019-01-04T13:12:51.362Z,3.47
2019-01-04T13:15:20.037Z,3.49
2019-01-04T13:17:49.437Z,3.47
2019-01-04T13:20:18.087Z,3.49
2019-01-04T13:22:46.666Z,3.51
2019-01-04T13:25:15.629Z,3.48
2019-01-04T13:27:44.272Z,3.31
2019-01-04T13:30:13.017Z,3.32
2019-01-04T13:32:41.681Z,3.31
2019-01-04T13:35:10.371Z,3.49
2019-01-04T13:37:38.955Z,3.38
2019-01-04T13:40:07.686Z,3.40
2019-01-04T13:42:36.312Z,3.32
2019-01-04T13:45:07.151Z,3.36
2019-01-04T13:47:39.802Z,3.36
2019-01-04T13:50:08.438Z,3.45
2019-01-04T13:52:37.312Z,3.56
2019-01-04T13:55:06.508Z,3.60
2019-01-04T13:57:35.164Z,3.43
2019-01-04T14:00:04.393Z,3.43
2019-01-04T14:02:32.934Z,3.35
2019-01-04T14:05:01.953Z,3.38
2019-01-04T14:07:30.493Z,3.43
2019-01-04T14:10:01.252Z,3.33
2019-01-04T14:12:30.220Z,3.49
2019-01-04T14:14:58.844Z,3.37
2019-01-04T14:17:27.519Z,3.49
2019-01-04T14:19:56.173Z,3.47
2019-01-04T14:22:25.283Z,3.52
2019-01-04T14:24:54.274Z,3.35
2019-01-04T14:27:23.446Z,3.30
2019-01-04T14:29:52.259Z,3.49
2019-01-04T14:32:21.008Z,3.41
2019-01-04T14:34:50.649Z,3.59
2019-01-04T14:37:19.387Z,3.53
2019-01-04T14:39:48.230Z,3.50
2019-01-04T14:42:16.881Z,3.56
2019-01-04T14:44:45.501Z,3.60
2019-01-04T14:47:14.126Z,3.43
2019-01-04T14:49:42.828Z,3.45
2019-01-04T14:52:11.559Z,3.58
2019-01-04T14:54:40.332Z,3.57
2019-01-04T14:57:09.296Z,3.71
2019-01-04T14:59:37.964Z,3.48
2019-01-04T15:02:06.949Z,3.49
2019-01-04T15:04:35.626Z,3.57
2019-01-04T15:07:04.728Z,3.61
2019-01-04T15:09:33.436Z,3.65
2019-01-04T15:12:02.086Z,3.79
2019-01-04T15:14:30.754Z,3.82
2019-01-04T15:16:59.445Z,3.82
2019-01-04T15:19:28.275Z,3.71
2019-01-04T15:21:56.947Z,3.79
2019-01-04T15:24:26.299Z,3.78
2019-01-04T15:26:55.302Z,3.80
2019-01-04T15:29:24.207Z,3.86
2019-01-04T15:31:52.872Z,3.83
2019-01-04T15:34:21.868Z,3.75
2019-01-04T15:36:51.062Z,3.73
2019-01-04T15:39:20.066Z,3.74
2019-01-04T15:41:48.901Z,3.74
2019-01-04T15:44:17.738Z,3.88
2019-01-04T15:46:46.503Z,3.79
2019-01-04T15:49:15.446Z,3.81
2019-01-04T15:51:45.046Z,3.73
2019-01-04T15:54:16.578Z,3.84
2019-01-04T15:56:46.065Z,3.97
2019-01-04T15:59:15.303Z,4.00
2019-01-04T16:01:43.972Z,3.97
2019-01-04T16:04:12.761Z,3.91
2019-01-04T16:06:41.655Z,3.91
2019-01-04T16:09:10.568Z,3.99
2019-01-04T16:11:39.321Z,4.05
2019-01-04T16:14:09.911Z,4.02
2019-01-04T16:16:38.872Z,4.09
2019-01-04T16:19:08.537Z,3.98
2019-01-04T16:21:37.527Z,3.97
2019-01-04T16:24:06.332Z,4.08
2019-01-04T16:26:34.993Z,4.14
2019-01-04T16:29:04.597Z,4.08
2019-01-04T16:31:33.727Z,4.13
2019-01-04T16:34:02.737Z,4.12
2019-01-04T16:36:31.642Z,4.10
2019-01-04T16:39:00.732Z,4.13
2019-01-04T16:41:29.572Z,4.11
2019-01-04T16:44:07.170Z,4.19
2019-01-04T16:46:32.642Z,4.04
2019-01-04T16:49:03.374Z,4.13
2019-01-04T16:51:32.045Z,4.12
2019-01-04T16:54:01.335Z,4.13
2019-01-04T16:56:29.962Z,4.07
2019-01-04T16:59:02.533Z,4.23
2019-01-04T17:01:34.227Z,4.23
2019-01-04T17:04:02.866Z,4.22
2019-01-04T17:06:31.459Z,4.25
2019-01-04T17:09:00.103Z,4.28
2019-01-04T17:11:29.238Z,4.15
2019-01-04T17:13:57.965Z,4.10
2019-01-04T17:16:26.636Z,4.07
2019-01-04T17:18:55.371Z,4.07
2019-01-04T17:21:24.341Z,4.25
2019-01-04T17:23:55.386Z,4.21
2019-01-04T17:26:26.508Z,4.19
2019-01-04T17:28:55.213Z,4.28
2019-01-04T17:31:23.903Z,4.36
2019-01-04T17:33:52.920Z,4.21
2019-01-04T17:36:21.519Z,4.12
2019-01-04T17:38:50.272Z,4.14
2019-01-04T17:41:18.857Z,4.05
2019-01-04T17:43:47.416Z,4.09
2019-01-04T17:46:16.218Z,4.16
2019-01-04T17:48:44.764Z,4.24
2019-01-04T17:51:13.518Z,4.16
2019-01-04T17:53:42.285Z,4.12
2019-01-04T17:56:10.924Z,4.10
2019-01-04T17:58:40.030Z,4.12
2019-01-04T18:01:09.211Z,4.13
2019-01-04T18:03:37.868Z,4.07
2019-01-04T18:06:06.488Z,4.12
2019-01-04T18:08:37.373Z,4.05
2019-01-04T18:11:06.400Z,3.97
2019-01-04T18:13:34.960Z,4.05
2019-01-04T18:16:05.147Z,4.12
2019-01-04T18:18:33.844Z,4.16
2019-01-04T18:21:02.523Z,4.09
2019-01-04T18:23:31.980Z,4.05
2019-01-04T18:26:00.677Z,4.17
2019-01-04T18:28:30.057Z,4.07
2019-01-04T18:30:58.913Z,4.00
2019-01-04T18:33:27.760Z,4.02
2019-01-04T18:35:56.899Z,4.10
2019-01-04T18:38:26.640Z,4.02
2019-01-04T18:40:55.873Z,4.02
2019-01-04T18:43:24.399Z,4.13
2019-01-04T18:45:54.505Z,4.10
2019-01-04T18:48:23.405Z,4.07
2019-01-04T18:50:53.734Z,4.02
2019-01-04T18:53:23.908Z,4.17
2019-01-04T18:55:53.824Z,4.12
2019-01-04T18:58:22.449Z,4.19
2019-01-04T19:00:52.349Z,4.18
2019-01-04T19:03:21.139Z,4.15
2019-01-04T19:05:49.880Z,4.24
2019-01-04T19:08:18.696Z,4.26
2019-01-04T19:10:47.525Z,4.27
2019-01-04T19:13:16.335Z,4.20
2019-01-04T19:15:46.370Z,4.19
2019-01-04T19:18:15.452Z,4.15
2019-01-04T19:20:44.109Z,4.17
2019-01-04T19:23:14.123Z,4.17
2019-01-04T19:25:45.275Z,4.08
2019-01-04T19:28:20.061Z,4.07
2019-01-04T19:30:50.426Z,4.03
2019-01-04T19:33:19.142Z,3.91
2019-01-04T19:35:48.010Z,3.97
2019-01-04T19:38:17.509Z,3.89
2019-01-04T19:40:46.337Z,3.91
2019-01-04T19:43:15.045Z,4.00
2019-01-04T19:45:45.026Z,4.05
2019-01-04T19:48:13.810Z,4.06
2019-01-04T19:50:42.883Z,4.05
2019-01-04T19:53:12.181Z,4.16
2019-01-04T19:55:54.080Z,4.10
2019-01-04T19:58:25.788Z,4.13
2019-01-04T20:00:55.386Z,4.26
2019-01-04T20:03:25.878Z,4.18
2019-01-04T20:06:17.420Z,4.11
2019-01-04T20:09:19.330Z,4.24
2019-01-04T20:12:18.844Z,4.19
2019-01-04T20:15:16.638Z,4.08
2019-01-04T20:17:53.143Z,4.16
2019-01-04T20:20:23.481Z,4.21
2019-01-04T20:23:02.805Z,4.07
2019-01-04T20:25:43.782Z,4.10
2019-01-04T20:28:15.089Z,4.33
2019-01-04T20:30:46.202Z,4.17
2019-01-04T20:33:19.286Z,4.29
2019-01-04T20:36:05.922Z,4.37
2019-01-04T20:38:53.076Z,4.44
2019-01-04T20:41:39.472Z,4.37
2019-01-04T20:44:09.901Z,4.48
2019-01-04T20:46:40.721Z,4.52
2019-01-04T20:49:23.734Z,4.49
2019-01-04T20:51:54.206Z,4.52
2019-01-04T20:54:33.906Z,4.61
2019-01-04T20:57:22.061Z,4.67
2019-01-04T20:59:54.001Z,4.66
2019-01-04T21:02:39.340Z,4.71
2019-01-04T21:05:27.918Z,4.75
2019-01-04T21:08:10.914Z,4.82
2019-01-04T21:10:53.334Z,4.74
2019-01-04T21:13:40.575Z,4.71
2019-01-04T21:16:27.353Z,4.73
2019-01-04T21:19:16.391Z,4.76
2019-01-04T21:21:53.664Z,4.83
2019-01-04T21:24:39.003Z,4.79
2019-01-04T21:27:16.186Z,4.85
2019-01-04T21:29:54.053Z,4.90
2019-01-04T21:32:39.705Z,4.76
2019-01-04T21:35:27.746Z,5.01
2019-01-04T21:38:01.426Z,5.00
2019-01-04T21:40:41.404Z,4.99
2019-01-04T21:43:28.733Z,5.03
2019-01-04T21:46:08.627Z,5.03
2019-01-04T21:48:44.388Z,5.08
2019-01-04T21:51:16.454Z,5.04
2019-01-04T21:53:48.692Z,5.03
2019-01-04T21:56:28.516Z,5.06
2019-01-04T21:59:16.847Z,5.17
2019-01-04T22:02:03.172Z,5.03
2019-01-04T22:04:49.438Z,5.10
2019-01-04T22:07:28.753Z,5.17
2019-01-04T22:09:59.843Z,5.05
2019-01-04T22:12:40.797Z,5.01
2019-01-04T22:15:30.530Z,5.07
2019-01-04T22:18:04.996Z,5.07
2019-01-04T22:20:45.382Z,5.06
2019-01-04T22:23:32.754Z,5.13
2019-01-04T22:26:05.534Z,5.13
2019-01-04T22:28:44.059Z,5.11
2019-01-04T22:31:26.526Z,5.08
2019-01-04T22:34:13.689Z,5.19
2019-01-04T22:36:53.959Z,5.19
2019-01-04T22:39:35.410Z,5.19
2019-01-04T22:42:14.908Z,5.18
2019-01-04T22:45:05.086Z,5.24
2019-01-04T22:47:43.779Z,5.11
2019-01-04T22:50:21.681Z,5.20
2019-01-04T22:53:09.616Z,5.31
2019-01-04T22:55:43.089Z,5.25
2019-01-04T22:58:30.013Z,5.17
2019-01-04T23:01:03.175Z,5.26
2019-01-04T23:03:33.561Z,5.21
2019-01-04T23:06:06.465Z,5.25
2019-01-04T23:08:46.094Z,5.21
2019-01-04T23:11:32.877Z,5.27
2019-01-04T23:14:16.537Z,5.32
2019-01-04T23:16:58.765Z,5.27
2019-01-04T23:19:46.262Z,5.23
2019-01-04T23:22:25.328Z,5.27
2019-01-04T23:24:55.583Z,5.29
2019-01-04T23:27:40.974Z,5.32
2019-01-04T23:30:17.760Z,5.41
2019-01-04T23:32:48.503Z,5.34
2019-01-04T23:35:29.312Z,5.29
2019-01-04T23:37:59.623Z,5.34
2019-01-04T23:40:46.860Z,5.38
2019-01-04T23:43:20.285Z,5.34
2019-01-04T23:46:08.658Z,5.33
2019-01-04T23:48:39.988Z,5.32
2019-01-04T23:51:10.185Z,5.37
2019-01-04T23:53:56.887Z,5.29
2019-01-04T23:56:30.353Z,5.38
2019-01-04T23:59:00.587Z,5.33
